sensor_id;sensor_type;location;lat;lon;timestamp;temperature;humidity
16521;DHT22;8373;48.110;11.522;2023-01-29T00:01:47;3.60;83.60
16521;DHT22;8373;48.110;11.522;2023-01-29T00:04:14;3.50;83.40
16521;DHT22;8373;48.110;11.522;2023-01-29T00:06:43;3.50;83.70
16521;DHT22;8373;48.110;11.522;2023-01-29T00:09:10;3.60;83.90
16521;DHT22;8373;48.110;11.522;2023-01-29T00:11:37;3.60;83.80
16521;DHT22;8373;48.110;11.522;2023-01-29T00:14:04;3.70;83.90
16521;DHT22;8373;48.110;11.522;2023-01-29T00:21:53;3.50;82.80
16521;DHT22;8373;48.110;11.522;2023-01-29T00:24:21;3.30;82.60
16521;DHT22;8373;48.110;11.522;2023-01-29T00:26:47;3.30;83.20
16521;DHT22;8373;48.110;11.522;2023-01-29T00:29:15;3.20;83.50
16521;DHT22;8373;48.110;11.522;2023-01-29T00:31:44;3.30;83.90
16521;DHT22;8373;48.110;11.522;2023-01-29T00:34:11;3.20;84.00
16521;DHT22;8373;48.110;11.522;2023-01-29T00:36:38;3.20;84.10
16521;DHT22;8373;48.110;11.522;2023-01-29T00:39:06;3.00;84.10
16521;DHT22;8373;48.110;11.522;2023-01-29T00:41:36;3.10;84.70
16521;DHT22;8373;48.110;11.522;2023-01-29T00:44:21;3.00;85.00
16521;DHT22;8373;48.110;11.522;2023-01-29T00:47:06;2.90;85.40
16521;DHT22;8373;48.110;11.522;2023-01-29T00:49:53;2.80;85.70
16521;DHT22;8373;48.110;11.522;2023-01-29T00:52:20;2.90;85.70
16521;DHT22;8373;48.110;11.522;2023-01-29T00:54:52;3.00;85.90
16521;DHT22;8373;48.110;11.522;2023-01-29T00:57:20;2.90;85.40
16521;DHT22;8373;48.110;11.522;2023-01-29T00:59:47;2.90;85.10
16521;DHT22;8373;48.110;11.522;2023-01-29T01:02:14;3.00;84.90
16521;DHT22;8373;48.110;11.522;2023-01-29T01:05:11;2.90;84.40
16521;DHT22;8373;48.110;11.522;2023-01-29T01:07:42;3.00;84.60
16521;DHT22;8373;48.110;11.522;2023-01-29T01:10:15;3.00;84.20
16521;DHT22;8373;48.110;11.522;2023-01-29T01:12:52;3.00;83.70
16521;DHT22;8373;48.110;11.522;2023-01-29T01:15:20;3.00;83.60
16521;DHT22;8373;48.110;11.522;2023-01-29T01:17:50;3.10;83.90
16521;DHT22;8373;48.110;11.522;2023-01-29T01:20:17;3.20;83.00
16521;DHT22;8373;48.110;11.522;2023-01-29T01:22:44;3.00;82.40
16521;DHT22;8373;48.110;11.522;2023-01-29T01:25:13;3.00;82.30
16521;DHT22;8373;48.110;11.522;2023-01-29T01:27:40;3.00;82.40
16521;DHT22;8373;48.110;11.522;2023-01-29T01:30:09;3.10;83.20
16521;DHT22;8373;48.110;11.522;2023-01-29T01:32:37;3.00;82.00
16521;DHT22;8373;48.110;11.522;2023-01-29T01:35:04;3.00;81.70
16521;DHT22;8373;48.110;11.522;2023-01-29T01:37:32;3.00;82.00
16521;DHT22;8373;48.110;11.522;2023-01-29T01:40:02;3.00;82.10
16521;DHT22;8373;48.110;11.522;2023-01-29T01:42:31;3.00;82.00
16521;DHT22;8373;48.110;11.522;2023-01-29T01:45:00;3.00;81.70
16521;DHT22;8373;48.110;11.522;2023-01-29T01:47:33;2.90;81.70
16521;DHT22;8373;48.110;11.522;2023-01-29T01:50:04;2.80;82.10
16521;DHT22;8373;48.110;11.522;2023-01-29T01:52:34;2.70;82.30
16521;DHT22;8373;48.110;11.522;2023-01-29T01:55:05;2.70;82.50
16521;DHT22;8373;48.110;11.522;2023-01-29T01:57:34;2.80;82.50
16521;DHT22;8373;48.110;11.522;2023-01-29T02:00:06;2.90;82.30
16521;DHT22;8373;48.110;11.522;2023-01-29T02:02:37;3.00;82.30
16521;DHT22;8373;48.110;11.522;2023-01-29T02:05:23;3.10;82.00
16521;DHT22;8373;48.110;11.522;2023-01-29T02:08:08;3.10;81.10
16521;DHT22;8373;48.110;11.522;2023-01-29T02:10:54;3.00;81.30
16521;DHT22;8373;48.110;11.522;2023-01-29T02:13:23;3.10;81.40
16521;DHT22;8373;48.110;11.522;2023-01-29T02:15:50;3.10;81.10
16521;DHT22;8373;48.110;11.522;2023-01-29T02:18:19;3.10;80.70
16521;DHT22;8373;48.110;11.522;2023-01-29T02:20:52;3.10;80.00
16521;DHT22;8373;48.110;11.522;2023-01-29T02:23:49;3.20;79.80
16521;DHT22;8373;48.110;11.522;2023-01-29T02:26:46;3.10;79.40
16521;DHT22;8373;48.110;11.522;2023-01-29T02:29:21;2.80;79.40
16521;DHT22;8373;48.110;11.522;2023-01-29T02:31:58;2.60;79.90
16521;DHT22;8373;48.110;11.522;2023-01-29T02:34:35;2.70;80.40
16521;DHT22;8373;48.110;11.522;2023-01-29T02:37:25;2.90;80.50
16521;DHT22;8373;48.110;11.522;2023-01-29T02:40:04;3.00;80.40
16521;DHT22;8373;48.110;11.522;2023-01-29T02:42:35;3.00;79.80
16521;DHT22;8373;48.110;11.522;2023-01-29T02:45:11;3.10;79.70
16521;DHT22;8373;48.110;11.522;2023-01-29T02:47:43;3.10;79.50
16521;DHT22;8373;48.110;11.522;2023-01-29T02:50:16;3.10;79.30
16521;DHT22;8373;48.110;11.522;2023-01-29T02:52:50;3.10;79.60
16521;DHT22;8373;48.110;11.522;2023-01-29T02:55:24;3.10;79.70
16521;DHT22;8373;48.110;11.522;2023-01-29T02:57:56;3.10;79.20
16521;DHT22;8373;48.110;11.522;2023-01-29T03:00:26;3.10;78.80
16521;DHT22;8373;48.110;11.522;2023-01-29T03:02:58;3.10;78.30
16521;DHT22;8373;48.110;11.522;2023-01-29T03:05:31;3.00;78.30
16521;DHT22;8373;48.110;11.522;2023-01-29T03:08:03;3.00;78.40
16521;DHT22;8373;48.110;11.522;2023-01-29T03:10:36;3.00;78.80
16521;DHT22;8373;48.110;11.522;2023-01-29T03:13:08;3.00;79.20
16521;DHT22;8373;48.110;11.522;2023-01-29T03:15:42;3.00;79.00
16521;DHT22;8373;48.110;11.522;2023-01-29T03:18:15;3.00;78.80
16521;DHT22;8373;48.110;11.522;2023-01-29T03:20:46;2.90;79.00
16521;DHT22;8373;48.110;11.522;2023-01-29T03:23:19;2.90;78.90
16521;DHT22;8373;48.110;11.522;2023-01-29T03:25:50;2.90;78.80
16521;DHT22;8373;48.110;11.522;2023-01-29T03:28:38;2.90;79.20
16521;DHT22;8373;48.110;11.522;2023-01-29T03:31:27;2.80;79.60
16521;DHT22;8373;48.110;11.522;2023-01-29T03:34:16;2.80;80.20
16521;DHT22;8373;48.110;11.522;2023-01-29T03:36:57;2.80;80.40
16521;DHT22;8373;48.110;11.522;2023-01-29T03:39:27;2.90;80.20
16521;DHT22;8373;48.110;11.522;2023-01-29T03:41:58;2.80;80.20
16521;DHT22;8373;48.110;11.522;2023-01-29T03:44:33;2.80;80.10
16521;DHT22;8373;48.110;11.522;2023-01-29T03:47:13;2.80;79.50
16521;DHT22;8373;48.110;11.522;2023-01-29T03:49:52;2.60;79.40
16521;DHT22;8373;48.110;11.522;2023-01-29T03:52:25;2.50;80.20
16521;DHT22;8373;48.110;11.522;2023-01-29T03:54:58;2.60;80.60
16521;DHT22;8373;48.110;11.522;2023-01-29T03:57:32;2.60;80.40
16521;DHT22;8373;48.110;11.522;2023-01-29T04:00:04;2.70;80.20
16521;DHT22;8373;48.110;11.522;2023-01-29T04:02:39;2.60;80.10
16521;DHT22;8373;48.110;11.522;2023-01-29T04:05:12;2.60;80.30
16521;DHT22;8373;48.110;11.522;2023-01-29T04:07:41;2.50;80.40
16521;DHT22;8373;48.110;11.522;2023-01-29T04:10:12;2.40;81.20
16521;DHT22;8373;48.110;11.522;2023-01-29T04:12:46;2.20;82.50
16521;DHT22;8373;48.110;11.522;2023-01-29T04:15:15;2.20;83.20
16521;DHT22;8373;48.110;11.522;2023-01-29T04:17:48;2.10;83.10
16521;DHT22;8373;48.110;11.522;2023-01-29T04:20:16;2.10;83.20
16521;DHT22;8373;48.110;11.522;2023-01-29T04:22:44;2.00;83.30
16521;DHT22;8373;48.110;11.522;2023-01-29T04:25:14;1.90;83.50
16521;DHT22;8373;48.110;11.522;2023-01-29T04:27:46;1.80;84.30
16521;DHT22;8373;48.110;11.522;2023-01-29T04:30:34;1.80;84.70
16521;DHT22;8373;48.110;11.522;2023-01-29T04:33:16;1.90;85.50
16521;DHT22;8373;48.110;11.522;2023-01-29T04:35:54;2.00;85.40
16521;DHT22;8373;48.110;11.522;2023-01-29T04:38:33;2.10;84.90
16521;DHT22;8373;48.110;11.522;2023-01-29T04:41:10;2.10;84.50
16521;DHT22;8373;48.110;11.522;2023-01-29T04:43:43;2.10;84.40
16521;DHT22;8373;48.110;11.522;2023-01-29T04:46:15;2.20;84.60
16521;DHT22;8373;48.110;11.522;2023-01-29T04:48:58;2.20;84.50
16521;DHT22;8373;48.110;11.522;2023-01-29T04:51:34;2.30;84.70
16521;DHT22;8373;48.110;11.522;2023-01-29T04:54:14;2.40;84.60
16521;DHT22;8373;48.110;11.522;2023-01-29T04:56:47;2.50;84.30
16521;DHT22;8373;48.110;11.522;2023-01-29T04:59:21;2.60;83.60
16521;DHT22;8373;48.110;11.522;2023-01-29T05:01:51;2.60;82.70
16521;DHT22;8373;48.110;11.522;2023-01-29T05:04:19;2.60;82.50
16521;DHT22;8373;48.110;11.522;2023-01-29T05:06:47;2.60;82.70
16521;DHT22;8373;48.110;11.522;2023-01-29T05:09:15;2.60;82.70
16521;DHT22;8373;48.110;11.522;2023-01-29T05:11:44;2.60;82.90
16521;DHT22;8373;48.110;11.522;2023-01-29T05:14:15;2.60;82.60
16521;DHT22;8373;48.110;11.522;2023-01-29T05:16:46;2.70;83.00
16521;DHT22;8373;48.110;11.522;2023-01-29T05:19:14;2.80;82.90
16521;DHT22;8373;48.110;11.522;2023-01-29T05:21:45;2.80;82.40
16521;DHT22;8373;48.110;11.522;2023-01-29T05:24:15;2.90;82.00
16521;DHT22;8373;48.110;11.522;2023-01-29T05:26:43;2.90;81.40
16521;DHT22;8373;48.110;11.522;2023-01-29T05:29:29;2.80;81.30
16521;DHT22;8373;48.110;11.522;2023-01-29T05:31:56;2.80;81.20
16521;DHT22;8373;48.110;11.522;2023-01-29T05:34:23;2.80;81.10
16521;DHT22;8373;48.110;11.522;2023-01-29T05:36:51;2.80;80.70
16521;DHT22;8373;48.110;11.522;2023-01-29T05:39:19;2.70;80.80
16521;DHT22;8373;48.110;11.522;2023-01-29T05:41:46;2.70;80.00
16521;DHT22;8373;48.110;11.522;2023-01-29T05:44:13;2.60;79.90
16521;DHT22;8373;48.110;11.522;2023-01-29T05:46:40;2.60;80.00
16521;DHT22;8373;48.110;11.522;2023-01-29T05:49:06;2.70;79.80
16521;DHT22;8373;48.110;11.522;2023-01-29T05:51:33;2.70;79.50
16521;DHT22;8373;48.110;11.522;2023-01-29T05:54:02;2.80;79.20
16521;DHT22;8373;48.110;11.522;2023-01-29T05:56:29;2.70;78.30
16521;DHT22;8373;48.110;11.522;2023-01-29T05:58:56;2.60;78.70
16521;DHT22;8373;48.110;11.522;2023-01-29T06:01:24;2.50;79.50
16521;DHT22;8373;48.110;11.522;2023-01-29T06:03:51;2.60;79.20
16521;DHT22;8373;48.110;11.522;2023-01-29T06:06:18;2.70;78.60
16521;DHT22;8373;48.110;11.522;2023-01-29T06:08:45;2.70;77.70
16521;DHT22;8373;48.110;11.522;2023-01-29T06:11:14;2.60;77.70
16521;DHT22;8373;48.110;11.522;2023-01-29T06:16:13;2.70;78.40
16521;DHT22;8373;48.110;11.522;2023-01-29T06:18:40;2.70;79.00
16521;DHT22;8373;48.110;11.522;2023-01-29T06:21:09;2.80;79.40
16521;DHT22;8373;48.110;11.522;2023-01-29T06:23:37;2.90;79.50
16521;DHT22;8373;48.110;11.522;2023-01-29T06:26:06;2.90;79.10
16521;DHT22;8373;48.110;11.522;2023-01-29T06:28:34;2.90;79.10
16521;DHT22;8373;48.110;11.522;2023-01-29T06:31:03;2.90;78.70
16521;DHT22;8373;48.110;11.522;2023-01-29T06:33:30;3.00;78.80
16521;DHT22;8373;48.110;11.522;2023-01-29T06:35:57;3.10;78.60
16521;DHT22;8373;48.110;11.522;2023-01-29T06:38:25;3.10;77.60
16521;DHT22;8373;48.110;11.522;2023-01-29T06:40:52;3.10;77.00
16521;DHT22;8373;48.110;11.522;2023-01-29T06:43:20;3.00;76.30
16521;DHT22;8373;48.110;11.522;2023-01-29T06:45:52;2.70;76.50
16521;DHT22;8373;48.110;11.522;2023-01-29T06:48:20;2.50;77.40
16521;DHT22;8373;48.110;11.522;2023-01-29T06:50:47;2.40;78.50
16521;DHT22;8373;48.110;11.522;2023-01-29T06:53:15;2.30;79.10
16521;DHT22;8373;48.110;11.522;2023-01-29T06:55:43;2.20;79.30
16521;DHT22;8373;48.110;11.522;2023-01-29T06:58:16;2.10;79.80
16521;DHT22;8373;48.110;11.522;2023-01-29T07:00:43;2.00;80.20
16521;DHT22;8373;48.110;11.522;2023-01-29T07:03:11;1.90;80.70
16521;DHT22;8373;48.110;11.522;2023-01-29T07:05:38;1.90;81.20
16521;DHT22;8373;48.110;11.522;2023-01-29T07:08:06;1.80;81.30
16521;DHT22;8373;48.110;11.522;2023-01-29T07:10:34;1.70;81.60
16521;DHT22;8373;48.110;11.522;2023-01-29T07:13:01;1.80;82.80
16521;DHT22;8373;48.110;11.522;2023-01-29T07:15:28;2.00;83.00
16521;DHT22;8373;48.110;11.522;2023-01-29T07:17:56;2.10;82.60
16521;DHT22;8373;48.110;11.522;2023-01-29T07:20:27;2.20;81.90
16521;DHT22;8373;48.110;11.522;2023-01-29T07:22:55;2.40;81.40
16521;DHT22;8373;48.110;11.522;2023-01-29T07:25:22;2.40;80.80
16521;DHT22;8373;48.110;11.522;2023-01-29T07:27:50;2.50;80.20
16521;DHT22;8373;48.110;11.522;2023-01-29T07:30:17;2.50;79.10
16521;DHT22;8373;48.110;11.522;2023-01-29T07:32:44;2.20;78.80
16521;DHT22;8373;48.110;11.522;2023-01-29T07:35:11;2.10;79.40
16521;DHT22;8373;48.110;11.522;2023-01-29T07:37:39;2.00;80.00
16521;DHT22;8373;48.110;11.522;2023-01-29T07:40:07;2.00;80.50
16521;DHT22;8373;48.110;11.522;2023-01-29T07:42:37;2.10;80.60
16521;DHT22;8373;48.110;11.522;2023-01-29T07:45:05;2.10;79.90
16521;DHT22;8373;48.110;11.522;2023-01-29T07:47:33;2.10;79.50
16521;DHT22;8373;48.110;11.522;2023-01-29T07:50:02;2.10;79.80
16521;DHT22;8373;48.110;11.522;2023-01-29T07:52:30;2.00;79.70
16521;DHT22;8373;48.110;11.522;2023-01-29T07:54:59;2.00;79.70
16521;DHT22;8373;48.110;11.522;2023-01-29T07:57:26;2.00;79.70
16521;DHT22;8373;48.110;11.522;2023-01-29T07:59:55;1.90;79.30
16521;DHT22;8373;48.110;11.522;2023-01-29T08:02:22;1.80;79.20
16521;DHT22;8373;48.110;11.522;2023-01-29T08:08:21;1.70;79.40
16521;DHT22;8373;48.110;11.522;2023-01-29T08:10:49;1.60;80.00
16521;DHT22;8373;48.110;11.522;2023-01-29T08:13:16;1.70;80.20
16521;DHT22;8373;48.110;11.522;2023-01-29T08:15:43;1.70;79.10
16521;DHT22;8373;48.110;11.522;2023-01-29T08:18:10;1.70;79.30
16521;DHT22;8373;48.110;11.522;2023-01-29T08:20:37;1.70;79.40
16521;DHT22;8373;48.110;11.522;2023-01-29T08:25:51;2.00;79.90
16521;DHT22;8373;48.110;11.522;2023-01-29T08:28:18;2.20;78.00
16521;DHT22;8373;48.110;11.522;2023-01-29T08:30:45;2.20;76.60
16521;DHT22;8373;48.110;11.522;2023-01-29T08:33:12;2.20;76.30
16521;DHT22;8373;48.110;11.522;2023-01-29T08:35:39;2.30;74.90
16521;DHT22;8373;48.110;11.522;2023-01-29T08:38:06;2.30;74.20
16521;DHT22;8373;48.110;11.522;2023-01-29T08:40:34;2.30;74.90
16521;DHT22;8373;48.110;11.522;2023-01-29T08:43:04;2.50;75.40
16521;DHT22;8373;48.110;11.522;2023-01-29T08:45:33;2.70;75.20
16521;DHT22;8373;48.110;11.522;2023-01-29T08:48:01;2.80;74.60
16521;DHT22;8373;48.110;11.522;2023-01-29T08:50:28;3.00;74.20
16521;DHT22;8373;48.110;11.522;2023-01-29T08:52:57;3.10;73.80
16521;DHT22;8373;48.110;11.522;2023-01-29T08:55:25;3.10;73.00
16521;DHT22;8373;48.110;11.522;2023-01-29T08:57:52;3.20;72.80
16521;DHT22;8373;48.110;11.522;2023-01-29T09:00:21;3.30;72.80
16521;DHT22;8373;48.110;11.522;2023-01-29T09:02:49;3.40;72.40
16521;DHT22;8373;48.110;11.522;2023-01-29T09:05:16;3.30;71.50
16521;DHT22;8373;48.110;11.522;2023-01-29T09:07:43;3.20;71.30
16521;DHT22;8373;48.110;11.522;2023-01-29T09:10:10;3.30;71.60
16521;DHT22;8373;48.110;11.522;2023-01-29T09:12:38;3.20;71.00
16521;DHT22;8373;48.110;11.522;2023-01-29T09:15:06;3.30;71.10
16521;DHT22;8373;48.110;11.522;2023-01-29T09:17:34;3.30;70.80
16521;DHT22;8373;48.110;11.522;2023-01-29T09:20:01;3.30;70.40
16521;DHT22;8373;48.110;11.522;2023-01-29T09:22:30;3.30;70.70
16521;DHT22;8373;48.110;11.522;2023-01-29T09:24:57;3.40;70.50
16521;DHT22;8373;48.110;11.522;2023-01-29T09:27:24;3.50;70.20
16521;DHT22;8373;48.110;11.522;2023-01-29T09:29:51;3.60;69.30
16521;DHT22;8373;48.110;11.522;2023-01-29T09:32:18;3.60;68.50
16521;DHT22;8373;48.110;11.522;2023-01-29T09:34:47;3.50;68.20
16521;DHT22;8373;48.110;11.522;2023-01-29T09:37:14;3.50;69.00
16521;DHT22;8373;48.110;11.522;2023-01-29T09:39:42;3.50;69.30
16521;DHT22;8373;48.110;11.522;2023-01-29T09:42:13;3.50;69.60
16521;DHT22;8373;48.110;11.522;2023-01-29T09:44:54;3.50;69.90
16521;DHT22;8373;48.110;11.522;2023-01-29T09:47:26;3.50;70.30
16521;DHT22;8373;48.110;11.522;2023-01-29T09:49:58;3.60;70.90
16521;DHT22;8373;48.110;11.522;2023-01-29T09:52:27;3.70;70.60
16521;DHT22;8373;48.110;11.522;2023-01-29T09:55:00;3.80;69.90
16521;DHT22;8373;48.110;11.522;2023-01-29T09:57:32;3.70;69.60
16521;DHT22;8373;48.110;11.522;2023-01-29T10:00:00;3.80;69.50
16521;DHT22;8373;48.110;11.522;2023-01-29T10:02:47;3.70;69.70
16521;DHT22;8373;48.110;11.522;2023-01-29T10:05:32;3.80;70.40
16521;DHT22;8373;48.110;11.522;2023-01-29T10:11:16;3.90;70.00
16521;DHT22;8373;48.110;11.522;2023-01-29T10:13:51;3.80;69.90
16521;DHT22;8373;48.110;11.522;2023-01-29T10:16:32;3.80;70.30
16521;DHT22;8373;48.110;11.522;2023-01-29T10:19:12;3.80;70.70
16521;DHT22;8373;48.110;11.522;2023-01-29T10:21:55;3.60;70.90
16521;DHT22;8373;48.110;11.522;2023-01-29T10:24:35;3.50;71.30
16521;DHT22;8373;48.110;11.522;2023-01-29T10:27:07;3.60;72.10
16521;DHT22;8373;48.110;11.522;2023-01-29T10:29:40;3.70;72.00
16521;DHT22;8373;48.110;11.522;2023-01-29T10:32:14;3.80;71.90
16521;DHT22;8373;48.110;11.522;2023-01-29T10:34:45;3.70;71.60
16521;DHT22;8373;48.110;11.522;2023-01-29T10:37:17;3.70;71.80
16521;DHT22;8373;48.110;11.522;2023-01-29T10:39:49;3.60;72.00
16521;DHT22;8373;48.110;11.522;2023-01-29T10:42:25;3.60;72.80
16521;DHT22;8373;48.110;11.522;2023-01-29T10:45:09;3.70;72.40
16521;DHT22;8373;48.110;11.522;2023-01-29T10:48:08;3.80;72.70
16521;DHT22;8373;48.110;11.522;2023-01-29T10:50:46;3.80;72.00
16521;DHT22;8373;48.110;11.522;2023-01-29T10:53:32;3.60;71.70
16521;DHT22;8373;48.110;11.522;2023-01-29T10:56:16;3.50;71.90
16521;DHT22;8373;48.110;11.522;2023-01-29T10:58:50;3.70;72.60
16521;DHT22;8373;48.110;11.522;2023-01-29T11:01:18;3.80;72.30
16521;DHT22;8373;48.110;11.522;2023-01-29T11:03:45;3.90;72.80
16521;DHT22;8373;48.110;11.522;2023-01-29T11:06:16;4.00;71.90
16521;DHT22;8373;48.110;11.522;2023-01-29T11:08:51;4.10;71.10
16521;DHT22;8373;48.110;11.522;2023-01-29T11:11:21;4.10;70.50
16521;DHT22;8373;48.110;11.522;2023-01-29T11:13:54;4.10;70.10
16521;DHT22;8373;48.110;11.522;2023-01-29T11:16:23;4.10;70.40
16521;DHT22;8373;48.110;11.522;2023-01-29T11:18:53;4.10;70.70
16521;DHT22;8373;48.110;11.522;2023-01-29T11:21:20;4.10;70.40
16521;DHT22;8373;48.110;11.522;2023-01-29T11:23:49;3.80;69.90
16521;DHT22;8373;48.110;11.522;2023-01-29T11:26:18;3.60;70.30
16521;DHT22;8373;48.110;11.522;2023-01-29T11:28:48;3.60;71.10
16521;DHT22;8373;48.110;11.522;2023-01-29T11:31:18;3.50;71.20
16521;DHT22;8373;48.110;11.522;2023-01-29T11:33:46;3.30;71.30
16521;DHT22;8373;48.110;11.522;2023-01-29T11:36:35;3.20;71.80
16521;DHT22;8373;48.110;11.522;2023-01-29T11:39:17;3.10;72.20
16521;DHT22;8373;48.110;11.522;2023-01-29T11:41:48;3.10;72.60
16521;DHT22;8373;48.110;11.522;2023-01-29T11:44:21;3.20;72.90
16521;DHT22;8373;48.110;11.522;2023-01-29T11:46:52;3.40;73.00
16521;DHT22;8373;48.110;11.522;2023-01-29T11:49:29;3.60;72.60
16521;DHT22;8373;48.110;11.522;2023-01-29T11:51:59;3.70;72.20
16521;DHT22;8373;48.110;11.522;2023-01-29T11:54:31;3.90;71.60
16521;DHT22;8373;48.110;11.522;2023-01-29T11:57:00;4.00;71.10
16521;DHT22;8373;48.110;11.522;2023-01-29T11:59:35;3.70;69.80
16521;DHT22;8373;48.110;11.522;2023-01-29T12:02:11;3.50;70.40
16521;DHT22;8373;48.110;11.522;2023-01-29T12:04:42;3.50;71.10
16521;DHT22;8373;48.110;11.522;2023-01-29T12:07:12;3.50;70.70
16521;DHT22;8373;48.110;11.522;2023-01-29T12:09:48;3.10;71.00
16521;DHT22;8373;48.110;11.522;2023-01-29T12:12:30;2.80;72.20
16521;DHT22;8373;48.110;11.522;2023-01-29T12:15:20;3.10;73.50
16521;DHT22;8373;48.110;11.522;2023-01-29T12:18:05;3.30;73.30
16521;DHT22;8373;48.110;11.522;2023-01-29T12:20:38;3.40;72.90
16521;DHT22;8373;48.110;11.522;2023-01-29T12:23:18;3.50;72.30
16521;DHT22;8373;48.110;11.522;2023-01-29T12:25:57;3.60;71.70
16521;DHT22;8373;48.110;11.522;2023-01-29T12:28:36;3.60;71.90
16521;DHT22;8373;48.110;11.522;2023-01-29T12:31:18;3.80;71.90
16521;DHT22;8373;48.110;11.522;2023-01-29T12:33:51;4.00;71.90
16521;DHT22;8373;48.110;11.522;2023-01-29T12:36:24;3.90;70.70
16521;DHT22;8373;48.110;11.522;2023-01-29T12:38:53;3.80;70.60
16521;DHT22;8373;48.110;11.522;2023-01-29T12:41:29;3.70;70.80
16521;DHT22;8373;48.110;11.522;2023-01-29T12:44:01;3.70;70.90
16521;DHT22;8373;48.110;11.522;2023-01-29T12:46:33;3.60;70.80
16521;DHT22;8373;48.110;11.522;2023-01-29T12:49:03;3.70;71.20
16521;DHT22;8373;48.110;11.522;2023-01-29T12:51:33;3.70;70.80
16521;DHT22;8373;48.110;11.522;2023-01-29T12:54:03;3.80;70.90
16521;DHT22;8373;48.110;11.522;2023-01-29T12:56:37;3.90;70.60
16521;DHT22;8373;48.110;11.522;2023-01-29T12:59:14;3.80;70.10
16521;DHT22;8373;48.110;11.522;2023-01-29T13:01:48;3.80;70.30
16521;DHT22;8373;48.110;11.522;2023-01-29T13:04:20;3.80;70.50
16521;DHT22;8373;48.110;11.522;2023-01-29T13:06:55;3.90;70.40
16521;DHT22;8373;48.110;11.522;2023-01-29T13:09:26;3.80;70.40
16521;DHT22;8373;48.110;11.522;2023-01-29T13:11:59;3.70;70.20
16521;DHT22;8373;48.110;11.522;2023-01-29T13:14:35;3.60;70.70
16521;DHT22;8373;48.110;11.522;2023-01-29T13:17:09;3.50;70.90
16521;DHT22;8373;48.110;11.522;2023-01-29T13:19:42;3.60;71.70
16521;DHT22;8373;48.110;11.522;2023-01-29T13:22:16;3.70;71.80
16521;DHT22;8373;48.110;11.522;2023-01-29T13:24:45;3.80;71.10
16521;DHT22;8373;48.110;11.522;2023-01-29T13:27:21;3.80;71.20
16521;DHT22;8373;48.110;11.522;2023-01-29T13:29:49;3.80;71.90
16521;DHT22;8373;48.110;11.522;2023-01-29T13:32:22;3.80;71.30
16521;DHT22;8373;48.110;11.522;2023-01-29T13:34:51;3.80;70.90
16521;DHT22;8373;48.110;11.522;2023-01-29T13:37:25;3.80;70.40
16521;DHT22;8373;48.110;11.522;2023-01-29T13:39:54;3.80;70.70
16521;DHT22;8373;48.110;11.522;2023-01-29T13:42:31;3.70;70.50
16521;DHT22;8373;48.110;11.522;2023-01-29T13:45:01;3.60;70.70
16521;DHT22;8373;48.110;11.522;2023-01-29T13:47:30;3.70;71.70
16521;DHT22;8373;48.110;11.522;2023-01-29T13:50:01;3.40;71.20
16521;DHT22;8373;48.110;11.522;2023-01-29T13:52:34;3.30;71.50
16521;DHT22;8373;48.110;11.522;2023-01-29T13:55:04;3.40;72.20
16521;DHT22;8373;48.110;11.522;2023-01-29T13:57:48;3.50;72.10
16521;DHT22;8373;48.110;11.522;2023-01-29T14:03:49;3.70;71.40
16521;DHT22;8373;48.110;11.522;2023-01-29T14:06:43;3.80;71.30
16521;DHT22;8373;48.110;11.522;2023-01-29T14:12:40;3.80;70.90
16521;DHT22;8373;48.110;11.522;2023-01-29T14:18:14;3.70;70.20
16521;DHT22;8373;48.110;11.522;2023-01-29T14:20:55;3.30;69.90
16521;DHT22;8373;48.110;11.522;2023-01-29T14:23:29;3.10;70.40
16521;DHT22;8373;48.110;11.522;2023-01-29T14:25:58;3.00;71.00
16521;DHT22;8373;48.110;11.522;2023-01-29T14:28:30;3.20;71.70
16521;DHT22;8373;48.110;11.522;2023-01-29T14:30:58;3.30;71.30
16521;DHT22;8373;48.110;11.522;2023-01-29T14:33:27;3.40;70.60
16521;DHT22;8373;48.110;11.522;2023-01-29T14:35:58;3.50;70.80
16521;DHT22;8373;48.110;11.522;2023-01-29T14:38:26;3.50;70.20
16521;DHT22;8373;48.110;11.522;2023-01-29T14:41:13;3.50;70.50
16521;DHT22;8373;48.110;11.522;2023-01-29T14:43:43;3.20;69.60
16521;DHT22;8373;48.110;11.522;2023-01-29T14:46:41;3.20;70.10
16521;DHT22;8373;48.110;11.522;2023-01-29T14:49:08;3.10;70.10
16521;DHT22;8373;48.110;11.522;2023-01-29T14:51:36;3.10;70.70
16521;DHT22;8373;48.110;11.522;2023-01-29T14:54:11;3.20;71.30
16521;DHT22;8373;48.110;11.522;2023-01-29T14:56:44;3.20;71.20
16521;DHT22;8373;48.110;11.522;2023-01-29T14:59:16;3.10;71.10
16521;DHT22;8373;48.110;11.522;2023-01-29T15:01:47;3.20;71.60
16521;DHT22;8373;48.110;11.522;2023-01-29T15:04:20;3.20;71.50
16521;DHT22;8373;48.110;11.522;2023-01-29T15:06:51;3.20;71.50
16521;DHT22;8373;48.110;11.522;2023-01-29T15:09:28;3.20;71.60
16521;DHT22;8373;48.110;11.522;2023-01-29T15:12:02;3.10;71.40
16521;DHT22;8373;48.110;11.522;2023-01-29T15:14:36;3.00;71.60
16521;DHT22;8373;48.110;11.522;2023-01-29T15:17:20;3.20;71.90
16521;DHT22;8373;48.110;11.522;2023-01-29T15:19:48;3.40;71.80
16521;DHT22;8373;48.110;11.522;2023-01-29T15:22:16;3.50;71.60
16521;DHT22;8373;48.110;11.522;2023-01-29T15:24:45;3.50;71.20
16521;DHT22;8373;48.110;11.522;2023-01-29T15:27:14;3.60;71.10
16521;DHT22;8373;48.110;11.522;2023-01-29T15:29:47;3.60;70.90
16521;DHT22;8373;48.110;11.522;2023-01-29T15:32:22;3.50;70.60
16521;DHT22;8373;48.110;11.522;2023-01-29T15:34:54;3.60;70.70
16521;DHT22;8373;48.110;11.522;2023-01-29T15:37:27;3.50;70.50
16521;DHT22;8373;48.110;11.522;2023-01-29T15:39:55;3.40;70.80
16521;DHT22;8373;48.110;11.522;2023-01-29T15:42:22;3.40;71.30
16521;DHT22;8373;48.110;11.522;2023-01-29T15:44:53;3.50;71.60
16521;DHT22;8373;48.110;11.522;2023-01-29T15:47:24;3.50;71.60
16521;DHT22;8373;48.110;11.522;2023-01-29T15:49:54;3.50;71.20
16521;DHT22;8373;48.110;11.522;2023-01-29T15:52:24;3.50;71.30
16521;DHT22;8373;48.110;11.522;2023-01-29T15:54:54;3.50;71.30
16521;DHT22;8373;48.110;11.522;2023-01-29T15:57:23;3.40;71.20
16521;DHT22;8373;48.110;11.522;2023-01-29T15:59:54;3.30;71.20
16521;DHT22;8373;48.110;11.522;2023-01-29T16:02:35;3.10;71.40
16521;DHT22;8373;48.110;11.522;2023-01-29T16:05:04;3.10;72.10
16521;DHT22;8373;48.110;11.522;2023-01-29T16:07:33;2.90;71.60
16521;DHT22;8373;48.110;11.522;2023-01-29T16:10:02;2.90;72.10
16521;DHT22;8373;48.110;11.522;2023-01-29T16:12:31;2.70;71.80
16521;DHT22;8373;48.110;11.522;2023-01-29T16:15:01;2.60;72.20
16521;DHT22;8373;48.110;11.522;2023-01-29T16:17:31;2.80;72.80
16521;DHT22;8373;48.110;11.522;2023-01-29T16:20:02;2.90;72.60
16521;DHT22;8373;48.110;11.522;2023-01-29T16:22:32;3.00;72.60
16521;DHT22;8373;48.110;11.522;2023-01-29T16:25:04;3.10;72.60
16521;DHT22;8373;48.110;11.522;2023-01-29T16:27:32;3.10;72.10
16521;DHT22;8373;48.110;11.522;2023-01-29T16:30:03;3.00;71.80
16521;DHT22;8373;48.110;11.522;2023-01-29T16:32:32;3.00;72.40
16521;DHT22;8373;48.110;11.522;2023-01-29T16:35:00;3.20;72.60
16521;DHT22;8373;48.110;11.522;2023-01-29T16:37:29;3.10;72.30
16521;DHT22;8373;48.110;11.522;2023-01-29T16:39:57;3.00;72.40
16521;DHT22;8373;48.110;11.522;2023-01-29T16:42:25;3.20;73.00